Time;durP1;ratioP1;P1;durP2;ratioP2;P2;SDS_P1;SDS_P2;PMS_P1;PMS_P2;Temp;Humidity;BMP_temperature;BMP_pressure;BME280_temperature;BME280_humidity;BME280_pressure;Samples;Min_cycle;Max_cycle;Signal;HPM_P1;HPM_P2
2022/12/06 00:01:21;;;;;;;17.40;11.45;;;3.60;99.90;;;;;;5094085;28;20020;-72
2022/12/06 00:03:51;;;;;;;15.27;10.82;;;3.60;99.90;;;;;;5111958;28;20031;-72
2022/12/06 00:06:18;;;;;;;;;;;3.60;99.90;;;;;;5114195;28;20047;-72
2022/12/06 00:08:44;;;;;;;15.77;9.80;;;3.60;99.90;;;;;;5101811;28;19996;-72
2022/12/06 00:11:16;;;;;;;17.05;10.63;;;3.60;99.90;;;;;;5112804;28;20130;-73
2022/12/06 00:13:42;;;;;;;15.57;10.93;;;3.60;99.90;;;;;;5102015;28;20075;-73
2022/12/06 00:16:10;;;;;;;20.10;11.70;;;3.50;99.90;;;;;;5090309;28;20089;-72
2022/12/06 00:18:37;;;;;;;19.02;11.63;;;3.60;99.90;;;;;;5106447;28;20039;-73
2022/12/06 00:21:11;;;;;;;19.23;11.43;;;3.50;99.90;;;;;;5108955;28;20031;-73
2022/12/06 00:23:39;;;;;;;18.67;10.73;;;3.60;99.90;;;;;;5109727;28;20036;-73
2022/12/06 00:26:05;;;;;;;18.73;10.35;;;3.50;99.90;;;;;;5092124;28;20105;-73
2022/12/06 00:28:32;;;;;;;16.17;10.52;;;3.50;99.90;;;;;;5093574;28;20055;-73
2022/12/06 00:30:59;;;;;;;17.10;11.40;;;3.50;99.90;;;;;;5100236;28;20026;-73
2022/12/06 00:33:26;;;;;;;20.08;11.93;;;3.50;99.90;;;;;;5096743;28;21646;-74
2022/12/06 00:35:59;;;;;;;26.08;10.60;;;3.50;99.90;;;;;;5101925;28;20523;-73
2022/12/06 00:38:26;;;;;;;20.48;11.02;;;3.50;99.90;;;;;;5100847;28;20030;-73
2022/12/06 00:40:59;;;;;;;18.48;10.05;;;3.50;99.90;;;;;;5110406;28;20027;-73
2022/12/06 00:43:25;;;;;;;16.25;10.38;;;3.50;99.90;;;;;;5098571;28;20490;-73
2022/12/06 00:45:50;;;;;;;13.73;8.43;;;3.50;99.90;;;;;;5075600;28;20039;-73
2022/12/06 00:48:16;;;;;;;13.07;8.68;;;3.50;99.90;;;;;;5106600;28;20019;-73
2022/12/06 00:50:41;;;;;;;13.55;8.50;;;3.40;99.90;;;;;;5110942;28;20107;-73
2022/12/06 00:53:07;;;;;;;11.60;7.78;;;3.30;99.90;;;;;;5098616;28;20028;-73
2022/12/06 00:55:33;;;;;;;10.20;6.93;;;3.20;99.90;;;;;;5103218;28;20031;-73
2022/12/06 00:57:58;;;;;;;11.45;8.18;;;3.10;99.90;;;;;;5102090;28;20464;-72
2022/12/06 01:00:24;;;;;;;11.95;7.40;;;3.10;99.90;;;;;;5107605;28;20084;-73
2022/12/06 01:02:49;;;;;;;10.27;7.45;;;3.00;99.90;;;;;;5109112;28;20047;-73
2022/12/06 01:05:15;;;;;;;10.73;7.70;;;2.90;99.90;;;;;;5112463;28;20081;-72
2022/12/06 01:07:41;;;;;;;13.45;8.10;;;2.90;99.90;;;;;;5113311;28;20059;-72
2022/12/06 01:10:07;;;;;;;12.45;8.30;;;2.90;99.90;;;;;;5110842;28;20439;-72
2022/12/06 01:12:32;;;;;;;11.68;7.82;;;2.90;99.90;;;;;;5111129;28;20023;-73
2022/12/06 01:14:58;;;;;;;9.27;7.03;;;2.90;99.90;;;;;;5096471;28;20085;-73
2022/12/06 01:17:23;;;;;;;11.55;7.72;;;3.00;99.90;;;;;;5110070;28;20034;-73
2022/12/06 01:19:49;;;;;;;10.02;7.22;;;2.90;99.90;;;;;;5103073;28;20115;-74
2022/12/06 01:22:15;;;;;;;13.27;8.10;;;2.90;99.90;;;;;;5094347;28;20023;-73
2022/12/06 01:24:40;;;;;;;11.00;7.55;;;2.90;99.90;;;;;;5093947;28;20545;-74
2022/12/06 01:27:06;;;;;;;15.20;7.90;;;2.90;99.90;;;;;;5103647;28;20071;-72
2022/12/06 01:29:32;;;;;;;12.02;7.88;;;2.90;99.90;;;;;;5093044;28;20024;-73
2022/12/06 01:31:57;;;;;;;11.60;7.47;;;2.80;99.90;;;;;;5091397;28;20031;-73
2022/12/06 01:34:23;;;;;;;10.20;7.32;;;2.90;99.90;;;;;;5092741;28;20104;-73
2022/12/06 01:36:49;;;;;;;10.40;6.95;;;2.80;99.90;;;;;;5095543;28;20044;-74
2022/12/06 01:39:15;;;;;;;8.90;6.35;;;2.80;99.90;;;;;;5100187;28;20051;-73
2022/12/06 01:41:41;;;;;;;9.35;6.60;;;2.90;99.90;;;;;;5111781;28;20027;-73
2022/12/06 01:44:27;;;;;;;8.63;6.03;;;2.90;99.90;;;;;;5093854;28;20106;-73
2022/12/06 01:46:53;;;;;;;8.57;5.93;;;2.90;99.90;;;;;;5089938;28;20028;-73
2022/12/06 01:49:24;;;;;;;8.25;5.85;;;2.90;99.90;;;;;;5102032;28;20073;-73
2022/12/06 01:52:01;;;;;;;9.75;6.80;;;2.90;99.90;;;;;;5112309;28;20498;-74
2022/12/06 01:54:28;;;;;;;8.35;6.00;;;2.90;99.90;;;;;;5112449;28;20043;-73
2022/12/06 01:56:56;;;;;;;6.72;5.18;;;3.00;99.90;;;;;;5109361;28;20042;-72
2022/12/06 01:59:24;;;;;;;8.40;5.43;;;3.00;99.90;;;;;;5091385;28;20028;-73
2022/12/06 02:01:50;;;;;;;7.68;5.15;;;3.00;99.90;;;;;;5095271;28;20032;-72
2022/12/06 02:04:16;;;;;;;7.25;5.25;;;3.00;99.90;;;;;;5092644;28;20111;-72
2022/12/06 02:06:42;;;;;;;8.77;5.47;;;3.00;99.90;;;;;;5101261;28;20102;-72
2022/12/06 02:09:10;;;;;;;9.35;6.13;;;3.00;99.90;;;;;;5095055;28;20020;-73
2022/12/06 02:11:36;;;;;;;8.70;5.90;;;3.00;99.90;;;;;;5107625;28;20027;-72
2022/12/06 02:14:06;;;;;;;6.93;5.30;;;3.00;99.90;;;;;;5096796;28;20522;-72
2022/12/06 02:16:55;;;;;;;7.78;5.35;;;3.00;99.90;;;;;;5091564;28;20066;-72
2022/12/06 02:19:49;;;;;;;7.70;5.20;;;3.00;99.90;;;;;;5088520;28;20492;-73
2022/12/06 02:22:27;;;;;;;7.88;5.43;;;3.10;99.90;;;;;;5108297;28;20074;-72
2022/12/06 02:25:21;;;;;;;9.45;5.40;;;3.10;99.90;;;;;;5098415;28;20020;-73
2022/12/06 02:28:10;;;;;;;7.15;5.03;;;3.10;99.90;;;;;;5090801;28;20048;-73
2022/12/06 02:31:01;;;;;;;6.53;4.95;;;3.10;99.90;;;;;;5091430;28;20031;-72
2022/12/06 02:33:49;;;;;;;7.97;5.30;;;3.10;99.90;;;;;;5106636;28;20118;-74
2022/12/06 02:36:31;;;;;;;8.45;5.25;;;3.00;99.90;;;;;;5085192;28;20028;-72
2022/12/06 02:39:04;;;;;;;7.13;5.22;;;3.00;99.90;;;;;;5090871;28;20535;-72
2022/12/06 02:41:35;;;;;;;7.75;5.18;;;3.00;99.90;;;;;;5107239;28;20043;-73
2022/12/06 02:44:09;;;;;;;9.05;6.18;;;3.00;99.90;;;;;;5110762;28;20043;-71
2022/12/06 02:46:37;;;;;;;6.85;5.38;;;3.00;99.90;;;;;;5106809;28;20035;-73
2022/12/06 02:49:07;;;;;;;9.60;6.60;;;3.00;99.90;;;;;;5090334;28;20060;-73
2022/12/06 02:51:36;;;;;;;11.23;7.03;;;3.00;99.90;;;;;;5091066;28;20069;-73
2022/12/06 02:54:06;;;;;;;10.95;7.22;;;3.00;99.90;;;;;;5099519;28;20537;-73
2022/12/06 02:56:33;;;;;;;10.75;6.97;;;3.00;99.90;;;;;;5091415;28;20028;-73
2022/12/06 02:58:58;;;;;;;12.35;6.90;;;3.00;99.90;;;;;;5098101;28;20426;-72
2022/12/06 03:01:28;;;;;;;8.85;6.25;;;3.00;99.90;;;;;;5103292;28;20016;-72
2022/12/06 03:04:00;;;;;;;8.95;6.47;;;3.00;99.90;;;;;;5094935;28;20032;-73
2022/12/06 03:06:36;;;;;;;9.73;6.43;;;3.00;99.90;;;;;;5091295;28;20025;-73
2022/12/06 03:09:11;;;;;;;9.10;6.57;;;3.00;99.90;;;;;;5072454;28;20031;-72
2022/12/06 03:12:00;;;;;;;9.38;6.93;;;3.10;99.90;;;;;;5091217;28;20081;-73
2022/12/06 03:14:55;;;;;;;9.18;6.25;;;3.10;99.90;;;;;;5097606;28;20024;-73
2022/12/06 03:17:39;;;;;;;11.68;6.75;;;3.10;99.90;;;;;;5054057;28;20495;-73
2022/12/06 03:20:14;;;;;;;9.90;6.68;;;3.10;99.90;;;;;;5094367;28;20028;-71
2022/12/06 03:22:47;;;;;;;11.75;7.78;;;3.10;99.90;;;;;;5089495;28;20045;-73
2022/12/06 03:25:13;;;;;;;13.35;8.65;;;3.10;99.90;;;;;;5096484;28;20059;-71
2022/12/06 03:27:41;;;;;;;15.45;9.82;;;3.10;99.90;;;;;;5114733;28;20356;-72
2022/12/06 03:30:10;;;;;;;13.57;8.70;;;3.10;99.90;;;;;;5101140;28;20021;-72
2022/12/06 03:32:39;;;;;;;12.32;8.50;;;3.10;99.90;;;;;;5113688;28;20027;-72
2022/12/06 03:35:10;;;;;;;17.13;10.30;;;3.10;99.90;;;;;;5111320;28;20126;-72
2022/12/06 03:37:39;;;;;;;13.35;9.48;;;3.10;99.90;;;;;;5101724;28;20023;-73
2022/12/06 03:40:09;;;;;;;17.80;9.55;;;3.10;99.90;;;;;;5096233;28;20489;-72
2022/12/06 03:42:35;;;;;;;16.70;10.47;;;3.10;99.90;;;;;;5088133;28;20104;-73
2022/12/06 03:45:02;;;;;;;14.05;9.07;;;3.10;99.90;;;;;;5109017;28;20277;-73
2022/12/06 03:47:50;;;;;;;15.93;10.27;;;3.10;99.90;;;;;;5114633;28;20525;-72
2022/12/06 03:50:21;;;;;;;13.30;9.27;;;3.10;99.90;;;;;;5114647;28;20080;-73
2022/12/06 03:52:48;;;;;;;16.80;9.73;;;3.10;99.90;;;;;;5112948;28;20425;-72
2022/12/06 03:55:14;;;;;;;14.93;9.15;;;3.10;99.90;;;;;;5114600;28;20575;-73
2022/12/06 03:57:40;;;;;;;16.90;9.07;;;3.10;99.90;;;;;;5105360;28;20103;-73
2022/12/06 04:00:06;;;;;;;12.68;8.20;;;3.10;99.90;;;;;;5098729;28;20380;-73
2022/12/06 04:02:32;;;;;;;12.52;8.63;;;3.10;99.90;;;;;;5099465;28;20032;-74
2022/12/06 04:04:57;;;;;;;14.85;9.10;;;3.10;99.90;;;;;;5114075;28;20032;-72
2022/12/06 04:07:23;;;;;;;15.07;9.40;;;3.10;99.90;;;;;;5113814;28;20028;-73
2022/12/06 04:09:51;;;;;;;16.70;10.52;;;3.10;99.90;;;;;;5113844;28;20019;-73
2022/12/06 04:15:03;;;;;;;18.83;10.75;;;3.10;99.90;;;;;;5089370;28;20038;-72
2022/12/06 04:20:12;;;;;;;15.88;9.98;;;3.10;99.90;;;;;;5109871;28;20392;-72
2022/12/06 04:25:22;;;;;;;15.98;11.02;;;3.00;99.90;;;;;;5106050;28;20047;-72
2022/12/06 04:38:44;;;;;;;16.25;10.35;;;3.00;99.90;;;;;;5103975;28;20114;-72
2022/12/06 04:41:11;;;;;;;18.15;9.95;;;3.00;99.90;;;;;;5100917;28;20039;-72
2022/12/06 04:43:42;;;;;;;17.20;10.30;;;3.00;99.90;;;;;;5113775;28;20111;-72
2022/12/06 04:46:13;;;;;;;17.08;9.48;;;3.00;99.90;;;;;;5112248;28;20108;-73
2022/12/06 04:48:39;;;;;;;15.35;10.48;;;3.00;99.90;;;;;;5094145;28;20029;-72
2022/12/06 04:51:05;;;;;;;14.25;9.00;;;3.00;99.90;;;;;;5088184;28;20040;-72
2022/12/06 04:53:30;;;;;;;12.25;8.10;;;3.00;99.90;;;;;;5112824;28;20059;-74
2022/12/06 04:55:56;;;;;;;15.30;9.30;;;3.00;99.90;;;;;;5114290;28;20468;-73
2022/12/06 04:58:22;;;;;;;14.23;9.05;;;3.00;99.90;;;;;;5097924;28;20032;-73
2022/12/06 05:00:53;;;;;;;14.73;9.13;;;3.10;99.90;;;;;;5094488;28;20051;-72
2022/12/06 05:03:19;;;;;;;15.45;9.20;;;3.10;99.90;;;;;;5100596;28;20660;-73
2022/12/06 05:05:45;;;;;;;15.10;9.70;;;3.10;99.90;;;;;;5113531;28;20031;-73
2022/12/06 05:08:11;;;;;;;14.85;9.93;;;3.10;99.90;;;;;;5097401;28;20111;-73
2022/12/06 05:10:37;;;;;;;14.85;9.38;;;3.20;99.90;;;;;;5111607;28;20474;-72
2022/12/06 05:13:03;;;;;;;16.02;9.30;;;3.10;99.90;;;;;;5098815;28;20114;-72
2022/12/06 05:15:30;;;;;;;15.05;9.20;;;3.20;99.90;;;;;;5097817;28;20027;-71
2022/12/06 05:17:56;;;;;;;14.60;9.60;;;3.20;99.90;;;;;;5092121;28;20031;-72
2022/12/06 05:20:21;;;;;;;15.98;9.48;;;3.20;99.90;;;;;;5096526;28;20104;-72
2022/12/06 05:22:47;;;;;;;15.20;9.07;;;3.20;99.90;;;;;;5090067;28;21046;-72
2022/12/06 05:25:13;;;;;;;15.45;9.05;;;3.20;99.90;;;;;;5093976;28;20062;-73
2022/12/06 05:27:38;;;;;;;14.65;9.30;;;3.20;99.90;;;;;;5112383;28;20128;-72
2022/12/06 05:30:05;;;;;;;13.25;9.52;;;3.30;99.90;;;;;;5112133;28;20036;-72
2022/12/06 05:32:31;;;;;;;15.70;9.25;;;3.30;99.90;;;;;;5111345;28;20503;-72
2022/12/06 05:34:56;;;;;;;13.82;9.30;;;3.30;99.90;;;;;;5086027;28;20032;-72
2022/12/06 05:37:22;;;;;;;12.25;8.45;;;3.30;99.90;;;;;;5097289;28;20028;-72
2022/12/06 05:39:48;;;;;;;16.40;10.32;;;3.30;99.90;;;;;;5091937;28;20028;-72
2022/12/06 05:42:14;;;;;;;14.35;8.77;;;3.30;99.90;;;;;;5099656;28;20473;-72
2022/12/06 05:44:40;;;;;;;13.57;8.98;;;3.30;99.90;;;;;;5112773;28;20189;-72
2022/12/06 05:47:06;;;;;;;13.85;8.55;;;3.30;99.90;;;;;;5102315;28;20024;-72
2022/12/06 05:49:31;;;;;;;14.27;8.60;;;3.30;99.90;;;;;;5092405;28;20051;-72
2022/12/06 05:51:57;;;;;;;14.10;9.32;;;3.30;99.90;;;;;;5091344;28;20024;-72
2022/12/06 05:54:23;;;;;;;16.52;8.90;;;3.30;99.90;;;;;;5110275;28;20157;-73
2022/12/06 05:56:49;;;;;;;13.18;9.48;;;3.30;99.90;;;;;;5106416;28;20031;-73
2022/12/06 05:59:15;;;;;;;13.25;9.07;;;3.30;99.90;;;;;;5089959;28;20528;-73
2022/12/06 06:01:41;;;;;;;16.42;8.82;;;3.30;99.90;;;;;;5096445;28;20126;-72
2022/12/06 06:04:06;;;;;;;15.52;9.30;;;3.30;99.90;;;;;;5105775;28;20042;-71
2022/12/06 06:06:32;;;;;;;13.75;8.52;;;3.30;99.90;;;;;;5091472;28;20035;-74
2022/12/06 06:08:58;;;;;;;11.10;7.78;;;3.40;99.90;;;;;;5090899;28;20028;-73
2022/12/06 06:11:23;;;;;;;9.40;6.45;;;3.40;99.90;;;;;;5101481;28;20032;-73
2022/12/06 06:13:49;;;;;;;10.98;6.78;;;3.40;99.90;;;;;;5099437;28;20360;-73
2022/12/06 06:16:14;;;;;;;10.00;6.15;;;3.50;99.90;;;;;;5092387;28;20031;-73
2022/12/06 06:18:41;;;;;;;9.95;6.30;;;3.50;99.90;;;;;;5099845;28;20514;-72
2022/12/06 06:21:06;;;;;;;9.77;6.25;;;3.50;99.90;;;;;;5106627;28;20024;-73
2022/12/06 06:23:32;;;;;;;7.63;5.28;;;3.50;99.90;;;;;;5106765;28;20098;-73
2022/12/06 06:25:58;;;;;;;8.55;5.55;;;3.50;99.90;;;;;;5091540;28;20094;-72
2022/12/06 06:28:23;;;;;;;8.73;5.63;;;3.60;99.90;;;;;;5095455;28;20024;-74
2022/12/06 06:30:49;;;;;;;8.55;5.32;;;3.50;99.90;;;;;;5103365;28;20024;-72
2022/12/06 06:33:15;;;;;;;7.82;5.68;;;3.50;99.90;;;;;;5100645;28;20059;-74
2022/12/06 06:35:42;;;;;;;8.07;5.88;;;3.50;99.90;;;;;;5096894;28;20076;-73
2022/12/06 06:38:08;;;;;;;8.00;5.55;;;3.50;99.90;;;;;;5107189;28;20100;-73
2022/12/06 06:40:34;;;;;;;8.30;5.57;;;3.50;99.90;;;;;;5105011;28;20024;-74
2022/12/06 06:43:16;;;;;;;10.07;6.43;;;3.50;99.90;;;;;;5095354;28;20036;-73
2022/12/06 06:46:05;;;;;;;11.73;7.28;;;3.50;99.90;;;;;;5101805;28;20085;-74
2022/12/06 06:48:33;;;;;;;15.77;7.78;;;3.50;99.90;;;;;;5094203;28;20036;-74
2022/12/06 06:51:16;;;;;;;15.32;8.90;;;3.50;99.90;;;;;;5094210;28;20031;-71
2022/12/06 06:53:42;;;;;;;17.80;9.30;;;3.60;99.90;;;;;;5100539;28;20729;-73
2022/12/06 06:56:08;;;;;;;20.92;9.40;;;3.60;99.90;;;;;;5103361;28;20050;-72
2022/12/06 06:58:34;;;;;;;19.33;9.93;;;3.70;99.90;;;;;;5101137;28;20027;-78
2022/12/06 07:01:01;;;;;;;21.38;9.32;;;3.70;99.90;;;;;;5106939;28;20076;-80
2022/12/06 07:03:28;;;;;;;15.93;9.45;;;3.60;99.90;;;;;;5107025;28;20024;-72
2022/12/06 07:05:56;;;;;;;23.25;10.68;;;3.60;99.90;;;;;;5111232;28;20028;-72
2022/12/06 07:08:22;;;;;;;19.25;10.23;;;3.60;99.90;;;;;;5106912;28;20068;-72
2022/12/06 07:10:48;;;;;;;25.98;11.32;;;3.60;99.90;;;;;;5097876;28;20228;-70
2022/12/06 07:13:21;;;;;;;21.83;11.25;;;3.70;99.90;;;;;;5104571;28;20140;-71
2022/12/06 07:15:48;;;;;;;19.77;10.45;;;3.70;99.90;;;;;;5101527;28;20169;-71
2022/12/06 07:18:15;;;;;;;17.02;10.27;;;3.70;99.90;;;;;;5103316;28;20125;-71
2022/12/06 07:20:41;;;;;;;19.23;9.65;;;3.70;99.90;;;;;;5101752;28;20162;-69
2022/12/06 07:23:07;;;;;;;20.33;9.88;;;3.70;99.90;;;;;;5104800;28;20132;-71
2022/12/06 07:25:33;;;;;;;20.58;9.38;;;3.70;99.90;;;;;;5107566;28;20032;-76
2022/12/06 07:27:58;;;;;;;20.50;10.10;;;3.60;99.90;;;;;;5097155;28;20028;-73
2022/12/06 07:30:25;;;;;;;18.70;9.88;;;3.60;99.90;;;;;;5102562;28;20384;-73
2022/12/06 07:32:51;;;;;;;16.17;9.63;;;3.60;99.90;;;;;;5110468;28;20042;-72
2022/12/06 07:35:17;;;;;;;16.50;9.40;;;3.60;99.90;;;;;;5090790;28;20024;-74
2022/12/06 07:37:43;;;;;;;15.10;9.07;;;3.60;99.90;;;;;;5101083;28;20032;-73
2022/12/06 07:40:10;;;;;;;16.85;9.63;;;3.60;99.90;;;;;;5097744;28;20497;-70
2022/12/06 07:45:20;;;;;;;15.25;9.40;;;3.60;99.90;;;;;;5101676;28;20380;-72
2022/12/06 07:47:45;;;;;;;15.75;8.88;;;3.70;99.90;;;;;;5097922;28;20028;-71
2022/12/06 07:50:17;;;;;;;15.57;8.98;;;3.70;99.90;;;;;;5103441;28;20055;-71
2022/12/06 07:52:43;;;;;;;14.48;8.98;;;3.70;99.90;;;;;;5094826;28;20047;-71
2022/12/06 07:55:10;;;;;;;12.02;7.63;;;3.70;99.90;;;;;;5104804;28;20489;-71
2022/12/06 07:57:36;;;;;;;13.77;8.13;;;3.70;99.90;;;;;;5104219;28;20016;-68
2022/12/06 08:00:05;;;;;;;13.90;7.38;;;3.70;99.90;;;;;;5101327;28;20050;-70
2022/12/06 08:02:33;;;;;;;12.80;7.85;;;3.80;99.90;;;;;;5106755;28;20073;-71
2022/12/06 08:04:59;;;;;;;15.07;8.30;;;3.80;99.90;;;;;;5089933;28;20024;-73
2022/12/06 08:07:25;;;;;;;12.50;7.85;;;3.80;99.90;;;;;;5097584;28;20027;-69
2022/12/06 08:09:53;;;;;;;13.50;7.97;;;3.80;99.90;;;;;;5097432;28;20032;-69
2022/12/06 08:12:20;;;;;;;15.75;8.05;;;3.80;99.90;;;;;;5107650;28;20023;-69
2022/12/06 08:14:46;;;;;;;11.65;7.25;;;3.80;99.90;;;;;;5095587;28;20213;-68
2022/12/06 08:17:12;;;;;;;16.50;7.85;;;3.90;99.90;;;;;;5108638;28;20043;-69
2022/12/06 08:19:38;;;;;;;12.07;8.20;;;3.90;99.90;;;;;;5107184;28;20027;-68
2022/12/06 08:22:04;;;;;;;11.80;7.32;;;3.90;99.90;;;;;;5103375;28;20059;-68
2022/12/06 08:24:29;;;;;;;10.82;7.10;;;4.00;99.90;;;;;;5104717;28;20026;-69
2022/12/06 08:26:56;;;;;;;12.00;7.80;;;4.00;99.90;;;;;;5110940;28;20139;-69
2022/12/06 08:29:21;;;;;;;10.63;7.35;;;4.00;99.90;;;;;;5100288;27;20476;-70
2022/12/06 08:31:47;;;;;;;10.18;6.43;;;4.10;99.90;;;;;;5110022;27;20038;-69
2022/12/06 08:34:14;;;;;;;11.07;7.00;;;4.20;99.90;;;;;;5099809;28;20040;-69
2022/12/06 08:36:40;;;;;;;11.02;6.00;;;4.20;99.90;;;;;;5109965;28;20419;-69
2022/12/06 08:39:08;;;;;;;10.57;6.20;;;4.20;99.90;;;;;;5097689;28;20994;-70
2022/12/06 08:44:19;;;;;;;7.97;5.47;;;4.20;99.90;;;;;;5100122;28;20026;-71
2022/12/06 08:46:45;;;;;;;7.22;5.50;;;4.30;99.90;;;;;;5111971;28;20020;-71
2022/12/06 08:49:12;;;;;;;7.45;5.30;;;4.40;99.90;;;;;;5093468;28;20470;-69
2022/12/06 08:51:38;;;;;;;6.25;4.90;;;4.40;99.90;;;;;;5103238;28;20055;-69
2022/12/06 08:54:04;;;;;;;8.73;5.00;;;4.30;99.90;;;;;;5099133;28;20064;-71
2022/12/06 08:56:30;;;;;;;10.63;5.63;;;4.30;99.90;;;;;;5095233;28;20036;-70
2022/12/06 08:58:59;;;;;;;9.20;5.60;;;4.30;99.90;;;;;;5099598;28;20023;-71
2022/12/06 09:01:28;;;;;;;8.60;6.07;;;4.40;99.90;;;;;;5098617;28;20138;-70
2022/12/06 09:03:53;;;;;;;8.73;5.80;;;4.40;99.90;;;;;;5101581;28;20413;-69
2022/12/06 09:06:20;;;;;;;8.40;6.28;;;4.50;99.90;;;;;;5098078;28;20107;-72
2022/12/06 09:08:47;;;;;;;10.85;6.60;;;4.50;99.90;;;;;;5102707;28;20046;-72
2022/12/06 09:11:13;;;;;;;9.77;6.35;;;4.50;99.90;;;;;;5097364;28;20472;-70
2022/12/06 09:13:40;;;;;;;11.25;6.95;;;4.50;99.90;;;;;;5104540;28;20028;-69
2022/12/06 09:16:17;;;;;;;9.43;6.55;;;4.60;99.90;;;;;;5106524;28;20031;-72
2022/12/06 09:18:44;;;;;;;10.05;6.95;;;4.70;99.90;;;;;;5105180;28;20050;-71
2022/12/06 09:21:12;;;;;;;10.65;7.60;;;4.60;99.90;;;;;;5086850;28;20099;-73
2022/12/06 09:23:38;;;;;;;10.13;7.45;;;4.60;99.90;;;;;;5103415;27;20476;-71
2022/12/06 09:26:06;;;;;;;8.82;6.68;;;4.60;99.90;;;;;;5095784;28;20054;-71
2022/12/06 09:28:35;;;;;;;11.90;7.15;;;4.60;99.90;;;;;;5093181;27;20028;-70
2022/12/06 09:31:05;;;;;;;11.75;8.05;;;4.60;99.90;;;;;;5097569;28;20031;-70
2022/12/06 09:33:31;;;;;;;10.15;7.57;;;4.60;99.90;;;;;;5109360;28;20049;-69
2022/12/06 09:35:59;;;;;;;11.05;7.80;;;4.60;99.90;;;;;;5101624;28;20045;-70
2022/12/06 09:38:27;;;;;;;11.63;7.43;;;4.60;99.90;;;;;;5099882;28;20077;-68
2022/12/06 09:41:26;;;;;;;13.02;7.78;;;4.60;99.90;;;;;;5106876;28;20028;-69
2022/12/06 09:44:03;;;;;;;10.98;7.65;;;4.60;99.90;;;;;;5084476;27;20048;-68
2022/12/06 09:46:50;;;;;;;10.82;8.13;;;4.60;99.90;;;;;;5096960;28;20124;-70
2022/12/06 09:49:26;;;;;;;12.38;8.02;;;4.60;99.90;;;;;;5100902;28;20440;-70
2022/12/06 09:52:15;;;;;;;11.43;7.65;;;4.60;99.90;;;;;;5101838;28;20472;-72
2022/12/06 09:54:41;;;;;;;14.00;8.48;;;4.60;99.90;;;;;;5101763;28;20036;-71
2022/12/06 09:57:29;;;;;;;10.90;8.18;;;4.70;99.90;;;;;;5103797;28;20058;-71
2022/12/06 10:00:11;;;;;;;15.77;8.90;;;4.70;99.90;;;;;;5098370;28;20028;-70
2022/12/06 10:02:58;;;;;;;15.85;9.88;;;4.60;99.90;;;;;;5100794;28;20040;-70
2022/12/06 10:05:40;;;;;;;12.68;9.02;;;4.70;99.90;;;;;;5094312;28;20028;-69
2022/12/06 10:08:29;;;;;;;15.57;9.88;;;4.60;99.90;;;;;;5101996;28;20077;-70
2022/12/06 10:11:38;;;;;;;17.08;11.18;;;4.50;99.90;;;;;;5099592;28;20027;-76
2022/12/06 10:14:39;;;;;;;16.73;10.65;;;4.60;99.90;;;;;;5070589;28;20137;-66
2022/12/06 10:17:14;;;;;;;16.27;11.13;;;4.50;99.90;;;;;;5042523;28;20366;-69
2022/12/06 10:20:05;;;;;;;17.98;11.75;;;4.50;99.90;;;;;;5102655;28;20051;-68
2022/12/06 10:22:55;;;;;;;18.42;11.82;;;4.60;99.90;;;;;;5098335;28;20451;-69
2022/12/06 10:25:23;;;;;;;17.38;11.45;;;4.70;99.90;;;;;;5091369;28;20032;-71
2022/12/06 10:28:08;;;;;;;17.42;11.65;;;4.70;99.90;;;;;;5091533;28;20040;-69
2022/12/06 10:30:41;;;;;;;20.20;12.27;;;4.70;99.90;;;;;;5097482;28;20052;-70
2022/12/06 10:33:31;;;;;;;18.65;12.65;;;4.80;99.90;;;;;;5095157;28;20105;-69
2022/12/06 10:36:06;;;;;;;24.30;13.52;;;4.80;99.90;;;;;;5092032;28;20092;-71
2022/12/06 10:38:52;;;;;;;19.00;12.55;;;4.80;99.90;;;;;;5102953;28;20067;-71
2022/12/06 10:41:32;;;;;;;17.85;11.13;;;4.80;99.90;;;;;;5085718;28;20028;-72
2022/12/06 10:44:21;;;;;;;18.42;12.18;;;4.90;99.90;;;;;;5090456;28;20032;-70
2022/12/06 10:47:05;;;;;;;19.08;12.90;;;5.00;99.90;;;;;;5106402;28;20042;-70
2022/12/06 10:49:33;;;;;;;19.48;13.73;;;5.00;99.90;;;;;;5077359;28;20392;-70
2022/12/06 10:52:24;;;;;;;19.85;12.40;;;5.00;99.90;;;;;;5104756;28;20126;-74
2022/12/06 10:55:01;;;;;;;19.48;13.13;;;4.90;99.90;;;;;;5091297;28;20032;-72
2022/12/06 10:57:45;;;;;;;20.48;12.88;;;4.80;99.90;;;;;;5099252;28;20028;-71
2022/12/06 11:00:19;;;;;;;19.60;12.70;;;4.80;99.90;;;;;;5097719;28;20032;-72
2022/12/06 11:03:14;;;;;;;18.83;12.48;;;4.80;99.90;;;;;;5100419;28;20036;-72
2022/12/06 11:05:42;;;;;;;17.65;11.73;;;4.70;99.90;;;;;;5092392;28;20504;-71
2022/12/06 11:08:16;;;;;;;17.15;11.82;;;4.70;99.90;;;;;;5104703;28;20077;-71
2022/12/06 11:10:45;;;;;;;18.05;11.70;;;4.70;99.90;;;;;;5096723;28;20042;-79
2022/12/06 11:13:17;;;;;;;17.85;11.68;;;4.70;99.90;;;;;;5100543;28;20115;-82
2022/12/06 11:16:06;;;;;;;16.98;11.73;;;4.60;99.90;;;;;;5093157;28;20447;-80
2022/12/06 11:18:33;;;;;;;19.35;11.65;;;4.60;99.90;;;;;;5081969;28;20032;-83
2022/12/06 11:21:22;;;;;;;19.40;11.93;;;4.70;99.90;;;;;;5098026;28;20366;-80
2022/12/06 11:24:02;;;;;;;19.70;12.13;;;4.80;99.90;;;;;;5081842;28;20044;-68
2022/12/06 11:26:53;;;;;;;18.48;11.60;;;4.70;99.90;;;;;;5102013;28;20120;-69
2022/12/06 11:29:19;;;;;;;18.52;11.77;;;4.60;99.90;;;;;;5085315;28;20059;-71
2022/12/06 11:31:45;;;;;;;16.67;10.60;;;4.60;99.90;;;;;;5104054;28;20391;-69
2022/12/06 11:34:16;;;;;;;18.50;10.57;;;4.50;99.90;;;;;;5089185;28;20024;-70
2022/12/06 11:36:43;;;;;;;14.98;10.13;;;4.50;99.90;;;;;;5090206;28;20055;-69
2022/12/06 11:39:13;;;;;;;14.38;9.63;;;4.40;99.90;;;;;;5091235;28;20027;-71
2022/12/06 11:41:39;;;;;;;14.27;9.25;;;4.40;99.90;;;;;;5107284;28;20377;-73
2022/12/06 11:44:12;;;;;;;15.15;9.48;;;4.30;99.90;;;;;;5099770;28;20039;-72
2022/12/06 11:46:38;;;;;;;14.52;9.13;;;4.30;99.90;;;;;;5101283;28;20077;-72
2022/12/06 11:49:20;;;;;;;14.73;9.35;;;4.40;99.90;;;;;;5101348;28;20035;-71
2022/12/06 11:51:46;;;;;;;13.98;8.60;;;4.40;99.90;;;;;;5092492;28;20020;-71
2022/12/06 11:54:29;;;;;;;13.10;8.32;;;4.30;99.90;;;;;;5101475;28;20028;-71
2022/12/06 11:57:00;;;;;;;12.05;8.23;;;4.30;99.90;;;;;;5102321;28;20482;-73
2022/12/06 11:59:30;;;;;;;13.15;8.63;;;4.20;99.90;;;;;;5104615;28;20085;-70
2022/12/06 12:02:01;;;;;;;12.55;7.68;;;4.20;99.90;;;;;;5108936;28;20107;-69
2022/12/06 12:04:37;;;;;;;15.20;9.10;;;4.30;99.90;;;;;;5097579;28;20035;-67
2022/12/06 12:07:13;;;;;;;10.50;6.70;;;4.20;99.90;;;;;;5107193;28;20027;-68
2022/12/06 12:09:47;;;;;;;11.05;7.00;;;4.20;99.90;;;;;;5094044;28;20433;-68
2022/12/06 12:12:19;;;;;;;11.40;7.18;;;4.20;99.90;;;;;;5096644;28;20020;-67
2022/12/06 12:14:52;;;;;;;11.93;7.25;;;4.20;99.90;;;;;;5094019;28;20089;-67
2022/12/06 12:17:21;;;;;;;12.82;6.65;;;4.20;99.90;;;;;;5108894;28;20020;-69
2022/12/06 12:19:56;;;;;;;10.43;6.32;;;4.10;99.90;;;;;;5103830;28;20012;-67
2022/12/06 12:22:39;;;;;;;9.75;6.10;;;4.20;99.90;;;;;;5099625;28;20690;-69
2022/12/06 12:25:22;;;;;;;12.43;6.55;;;4.20;99.90;;;;;;5095302;28;20028;-68
2022/12/06 12:27:51;;;;;;;11.80;6.50;;;4.20;99.90;;;;;;5095113;28;20044;-68
2022/12/06 12:30:17;;;;;;;10.73;6.45;;;4.10;99.90;;;;;;5100399;28;20028;-68
2022/12/06 12:32:44;;;;;;;8.52;4.75;;;4.20;99.90;;;;;;5095487;28;20027;-68
2022/12/06 12:35:27;;;;;;;9.45;5.38;;;4.20;99.90;;;;;;5093085;28;20051;-68
2022/12/06 12:38:03;;;;;;;7.50;4.57;;;4.20;99.90;;;;;;5096735;28;20107;-68
2022/12/06 12:40:42;;;;;;;7.53;4.78;;;4.20;99.90;;;;;;5098865;28;20115;-70
2022/12/06 12:43:10;;;;;;;11.20;4.68;;;4.20;99.90;;;;;;5110605;28;20044;-72
2022/12/06 12:45:39;;;;;;;6.95;4.47;;;4.10;99.90;;;;;;5101153;28;20354;-71
2022/12/06 12:48:22;;;;;;;8.18;4.53;;;4.10;99.90;;;;;;5102929;27;20086;-70
2022/12/06 12:50:53;;;;;;;8.90;4.53;;;4.00;99.90;;;;;;5109963;27;20096;-70
2022/12/06 12:53:31;;;;;;;10.23;4.18;;;4.00;99.90;;;;;;5104468;28;20032;-69
2022/12/06 12:56:18;;;;;;;8.57;4.30;;;4.00;99.90;;;;;;5098042;28;20036;-70
2022/12/06 12:58:46;;;;;;;8.73;4.35;;;4.00;99.90;;;;;;5107103;28;20035;-70
2022/12/06 13:01:31;;;;;;;8.20;4.63;;;3.90;99.90;;;;;;5090561;28;20469;-70
2022/12/06 13:04:03;;;;;;;6.28;4.30;;;3.90;99.90;;;;;;5098192;28;20040;-68
2022/12/06 13:06:37;;;;;;;7.80;5.18;;;3.90;99.90;;;;;;5102859;28;20030;-68
2022/12/06 13:09:04;;;;;;;6.88;5.00;;;3.90;99.90;;;;;;5100525;28;20141;-68
2022/12/06 13:11:32;;;;;;;8.55;5.28;;;3.90;99.90;;;;;;5097970;27;20105;-68
2022/12/06 13:14:00;;;;;;;7.68;5.45;;;4.00;99.90;;;;;;5100196;28;20024;-68
2022/12/06 13:16:31;;;;;;;8.32;5.20;;;4.00;99.90;;;;;;5095629;28;20036;-69
2022/12/06 13:18:58;;;;;;;7.82;4.80;;;4.00;99.90;;;;;;5093918;28;20790;-68
2022/12/06 13:21:30;;;;;;;8.15;5.07;;;3.90;99.90;;;;;;5100076;28;20043;-68
2022/12/06 13:24:06;;;;;;;11.45;5.40;;;3.90;99.90;;;;;;5109638;28;20026;-68
2022/12/06 13:26:43;;;;;;;7.07;4.78;;;3.90;99.90;;;;;;5092217;28;20062;-68
2022/12/06 13:29:34;;;;;;;8.30;5.47;;;3.90;99.90;;;;;;5101301;28;20027;-69
2022/12/06 13:32:12;;;;;;;9.40;5.05;;;3.90;99.90;;;;;;5102150;28;20039;-69